createdAt,value
2018-12-11T00:01:06.254Z,3.40
2018-12-11T00:03:37.262Z,3.40
2018-12-11T00:06:06.267Z,3.40
2018-12-11T00:08:35.341Z,3.40
2018-12-11T00:11:04.406Z,3.30
2018-12-11T00:13:33.506Z,3.30
2018-12-11T00:16:02.525Z,3.20
2018-12-11T00:18:31.555Z,3.30
2018-12-11T00:21:00.554Z,3.30
2018-12-11T00:23:29.570Z,3.30
2018-12-11T00:25:58.600Z,3.40
2018-12-11T00:28:27.622Z,3.40
2018-12-11T00:30:56.659Z,3.50
2018-12-11T00:33:25.659Z,3.50
2018-12-11T00:35:54.662Z,3.60
2018-12-11T00:38:23.726Z,3.60
2018-12-11T00:40:53.619Z,3.70
2018-12-11T00:43:22.662Z,3.70
2018-12-11T00:45:51.647Z,3.70
2018-12-11T00:48:20.675Z,3.70
2018-12-11T00:50:49.682Z,3.60
2018-12-11T00:53:18.707Z,3.70
2018-12-11T00:55:47.723Z,3.70
2018-12-11T00:58:16.721Z,3.70
2018-12-11T01:00:45.755Z,3.80
2018-12-11T01:03:14.863Z,3.80
2018-12-11T01:05:43.894Z,3.80
2018-12-11T01:08:12.962Z,3.90
2018-12-11T01:10:41.983Z,3.90
2018-12-11T01:13:11.027Z,3.90
2018-12-11T01:15:40.058Z,4.00
2018-12-11T01:18:09.062Z,4.00
2018-12-11T01:20:38.070Z,4.00
2018-12-11T01:23:07.159Z,4.00
2018-12-11T01:25:36.212Z,4.00
2018-12-11T01:28:05.234Z,4.00
2018-12-11T01:30:34.242Z,4.00
2018-12-11T01:33:03.406Z,4.00
2018-12-11T01:35:32.418Z,4.00
2018-12-11T01:38:01.415Z,4.00
2018-12-11T01:40:30.478Z,4.00
2018-12-11T01:42:59.523Z,3.90
2018-12-11T01:45:28.678Z,3.90
2018-12-11T01:47:57.674Z,3.90
2018-12-11T01:50:26.721Z,3.90
2018-12-11T01:52:55.754Z,3.90
2018-12-11T01:55:24.774Z,3.90
2018-12-11T01:57:53.775Z,3.80
2018-12-11T02:00:24.427Z,3.80
2018-12-11T02:02:53.480Z,3.70
2018-12-11T02:05:22.511Z,3.70
2018-12-11T02:07:51.542Z,3.50
2018-12-11T02:10:20.546Z,3.40
2018-12-11T02:12:49.565Z,3.40
2018-12-11T02:15:18.708Z,3.30
2018-12-11T02:17:47.752Z,3.30
2018-12-11T02:20:17.294Z,3.30
2018-12-11T02:22:46.394Z,3.40
2018-12-11T02:25:15.397Z,3.50
2018-12-11T02:27:44.414Z,3.50
2018-12-11T02:30:15.284Z,3.40
2018-12-11T02:32:44.306Z,3.30
2018-12-11T02:35:13.322Z,3.20
2018-12-11T02:37:42.412Z,3.10
2018-12-11T02:40:12.298Z,3.10
2018-12-11T02:42:41.357Z,3.00
2018-12-11T02:45:10.372Z,2.90
2018-12-11T02:47:39.412Z,2.90
2018-12-11T02:50:09.161Z,2.90
2018-12-11T02:52:38.150Z,2.90
2018-12-11T02:55:07.304Z,2.90
2018-12-11T02:57:36.359Z,2.90
2018-12-11T03:00:06.787Z,3.00
2018-12-11T03:02:35.808Z,3.00
2018-12-11T03:05:05.933Z,3.10
2018-12-11T03:07:34.892Z,3.10
2018-12-11T03:10:04.499Z,3.10
2018-12-11T03:12:33.522Z,3.10
2018-12-11T03:15:02.558Z,3.10
2018-12-11T03:17:31.595Z,3.10
2018-12-11T03:20:00.612Z,3.00
2018-12-11T03:22:29.622Z,2.90
2018-12-11T03:24:58.675Z,2.90
2018-12-11T03:27:27.694Z,2.90
2018-12-11T03:29:57.776Z,2.90
2018-12-11T03:32:26.932Z,2.80
2018-12-11T03:34:55.932Z,2.80
2018-12-11T03:37:25.028Z,2.70
2018-12-11T03:39:54.042Z,2.70
2018-12-11T03:42:23.054Z,2.70
2018-12-11T03:44:52.078Z,2.60
2018-12-11T03:47:21.106Z,2.60
2018-12-11T03:49:50.112Z,2.50
2018-12-11T03:52:21.520Z,2.40
2018-12-11T03:54:50.101Z,2.40
2018-12-11T03:57:19.153Z,2.40
2018-12-11T03:59:49.032Z,2.40
2018-12-11T04:02:18.034Z,2.50
2018-12-11T04:04:47.058Z,2.50
2018-12-11T04:07:16.091Z,2.60
2018-12-11T04:09:45.094Z,2.70
2018-12-11T04:12:14.402Z,2.80
2018-12-11T04:14:43.528Z,2.80
2018-12-11T04:17:12.622Z,2.80
2018-12-11T04:19:41.634Z,2.80
2018-12-11T04:22:10.607Z,2.80
2018-12-11T04:24:39.616Z,2.80
2018-12-11T04:27:10.606Z,2.90
2018-12-11T04:29:39.619Z,3.00
2018-12-11T04:32:08.620Z,3.00
2018-12-11T04:34:37.635Z,3.10
2018-12-11T04:37:06.642Z,3.20
2018-12-11T04:39:35.740Z,3.20
2018-12-11T04:42:04.871Z,3.20
2018-12-11T04:44:40.123Z,3.10
2018-12-11T04:47:09.122Z,3.10
2018-12-11T04:49:38.139Z,3.10
2018-12-11T04:52:07.133Z,3.20
2018-12-11T04:54:36.130Z,3.20
2018-12-11T04:57:05.120Z,3.20
2018-12-11T04:59:34.115Z,3.30
2018-12-11T05:02:06.363Z,3.40
2018-12-11T05:04:35.466Z,3.40
2018-12-11T05:07:04.598Z,3.40
2018-12-11T05:09:33.595Z,3.50
2018-12-11T05:12:02.603Z,3.50
2018-12-11T05:14:31.598Z,3.50
2018-12-11T05:17:00.599Z,3.50
2018-12-11T05:19:29.618Z,3.50
2018-12-11T05:21:58.603Z,3.50
2018-12-11T05:24:27.587Z,3.60
2018-12-11T05:26:56.579Z,3.60
2018-12-11T05:29:25.577Z,3.60
2018-12-11T05:32:00.807Z,3.60
2018-12-11T05:34:29.814Z,3.60
2018-12-11T05:36:59.024Z,3.70
2018-12-11T05:39:28.027Z,3.60
2018-12-11T05:41:57.039Z,3.50
2018-12-11T05:44:26.063Z,3.50
2018-12-11T05:46:55.053Z,3.40
2018-12-11T05:49:24.078Z,3.40
2018-12-11T05:51:53.048Z,3.40
2018-12-11T05:54:22.043Z,3.50
2018-12-11T05:56:51.055Z,3.50
2018-12-11T05:59:20.054Z,3.60
2018-12-11T06:01:49.063Z,3.70
2018-12-11T06:04:18.168Z,3.70
2018-12-11T06:06:47.181Z,3.80
2018-12-11T06:09:16.215Z,3.70
2018-12-11T06:11:45.202Z,3.70
2018-12-11T06:14:14.179Z,3.80
2018-12-11T06:16:43.324Z,3.80
2018-12-11T06:19:13.332Z,3.80
2018-12-11T06:21:42.356Z,3.80
2018-12-11T06:24:11.424Z,3.80
2018-12-11T06:26:40.428Z,3.80
2018-12-11T06:29:09.439Z,3.80
2018-12-11T06:31:38.439Z,3.80
2018-12-11T06:34:07.432Z,3.70
2018-12-11T06:36:36.430Z,3.60
2018-12-11T06:39:06.678Z,3.50
2018-12-11T06:41:35.683Z,3.40
2018-12-11T06:44:04.818Z,3.30
2018-12-11T06:46:33.812Z,3.20
2018-12-11T06:49:02.815Z,3.10
2018-12-11T06:51:31.839Z,3.00
2018-12-11T06:54:00.846Z,3.00
2018-12-11T06:56:29.849Z,3.00
2018-12-11T06:58:58.883Z,2.90
2018-12-11T07:01:27.892Z,2.90
2018-12-11T07:03:56.983Z,2.90
2018-12-11T07:06:26.064Z,2.90
2018-12-11T07:08:55.090Z,2.80
2018-12-11T07:11:24.107Z,2.70
2018-12-11T07:13:53.150Z,2.70
2018-12-11T07:16:22.186Z,2.60
2018-12-11T07:18:51.326Z,2.60
2018-12-11T07:21:20.334Z,2.50
2018-12-11T07:23:49.415Z,2.50
2018-12-11T07:26:18.458Z,2.50
2018-12-11T07:28:47.471Z,2.50
2018-12-11T07:31:16.476Z,2.40
2018-12-11T07:33:50.897Z,2.40
2018-12-11T07:36:16.491Z,2.30
2018-12-11T07:38:45.506Z,2.30
2018-12-11T07:41:14.536Z,2.30
2018-12-11T07:43:43.523Z,2.30
2018-12-11T07:46:12.542Z,2.30
2018-12-11T07:48:41.535Z,2.30
2018-12-11T07:51:10.607Z,2.40
2018-12-11T07:53:39.623Z,2.60
2018-12-11T07:56:08.620Z,2.80
2018-12-11T07:58:37.623Z,3.00
2018-12-11T08:01:06.635Z,3.30
2018-12-11T08:03:35.651Z,3.60
2018-12-11T08:06:04.699Z,3.90
2018-12-11T08:08:33.728Z,4.30
2018-12-11T08:11:02.791Z,4.70
2018-12-11T08:13:31.795Z,4.90
2018-12-11T08:16:00.838Z,5.30
2018-12-11T08:18:29.866Z,5.60
2018-12-11T08:20:58.864Z,5.80
2018-12-11T08:23:27.975Z,6.10
2018-12-11T08:25:56.959Z,6.30
2018-12-11T08:28:26.011Z,6.50
2018-12-11T08:30:55.025Z,6.40
2018-12-11T08:33:24.018Z,5.80
2018-12-11T08:35:53.042Z,5.20
2018-12-11T08:38:22.013Z,5.10
2018-12-11T08:40:51.038Z,4.90
2018-12-11T08:43:20.037Z,4.90
2018-12-11T08:45:49.072Z,5.10
2018-12-11T08:48:18.128Z,5.00
2018-12-11T08:50:47.140Z,5.10
2018-12-11T08:53:16.158Z,5.50
2018-12-11T08:55:45.154Z,5.60
2018-12-11T08:58:14.199Z,5.30
2018-12-11T09:00:43.200Z,5.10
2018-12-11T09:03:12.203Z,4.80
2018-12-11T09:05:41.200Z,4.60
2018-12-11T09:08:10.218Z,5.50
2018-12-11T09:10:39.232Z,6.20
2018-12-11T09:13:08.326Z,7.20
2018-12-11T09:15:37.316Z,7.60
2018-12-11T09:18:06.344Z,7.70
2018-12-11T09:20:35.331Z,8.40
2018-12-11T09:23:04.439Z,8.80
2018-12-11T09:25:33.453Z,8.60
2018-12-11T09:28:02.490Z,8.00
2018-12-11T09:30:31.734Z,8.70
2018-12-11T09:33:00.702Z,9.90
2018-12-11T09:35:29.708Z,10.40
2018-12-11T09:37:58.742Z,11.00
2018-12-11T09:40:27.748Z,10.60
2018-12-11T09:42:56.776Z,10.10
2018-12-11T09:45:25.801Z,10.50
2018-12-11T09:47:54.835Z,10.80
2018-12-11T09:50:24.014Z,11.60
2018-12-11T09:52:53.046Z,11.90
2018-12-11T09:55:22.606Z,12.40
2018-12-11T09:57:51.622Z,12.70
2018-12-11T10:00:25.823Z,13.40
2018-12-11T10:02:51.683Z,13.40
2018-12-11T10:05:20.828Z,12.10
2018-12-11T10:07:49.851Z,11.20
2018-12-11T10:10:18.886Z,10.00
2018-12-11T10:12:47.930Z,9.30
2018-12-11T10:15:16.897Z,8.70
2018-12-11T10:17:45.911Z,8.10
2018-12-11T10:20:15.330Z,7.80
2018-12-11T10:22:44.374Z,7.60
2018-12-11T10:25:13.389Z,7.60
2018-12-11T10:27:42.397Z,7.40
2018-12-11T10:30:11.633Z,7.30
2018-12-11T10:32:40.679Z,7.20
2018-12-11T10:35:09.694Z,7.10
2018-12-11T10:37:38.742Z,6.90
2018-12-11T10:40:07.814Z,6.90
2018-12-11T10:42:36.834Z,6.90
2018-12-11T10:45:06.223Z,6.90
2018-12-11T10:47:35.295Z,6.90
2018-12-11T10:50:04.707Z,7.10
2018-12-11T10:52:33.732Z,7.20
2018-12-11T10:55:02.754Z,7.40
2018-12-11T10:57:31.842Z,7.70
2018-12-11T11:00:00.856Z,8.30
2018-12-11T11:02:29.861Z,8.80
2018-12-11T11:04:58.881Z,9.80
2018-12-11T11:07:27.914Z,10.70
2018-12-11T11:09:56.939Z,11.30
2018-12-11T11:12:25.976Z,12.10
2018-12-11T11:14:55.027Z,12.60
2018-12-11T11:17:24.166Z,13.10
2018-12-11T11:19:53.147Z,13.70
2018-12-11T11:22:22.209Z,13.90
2018-12-11T11:24:51.267Z,14.40
2018-12-11T11:27:20.286Z,14.40
2018-12-11T11:29:49.359Z,13.70
2018-12-11T11:32:18.383Z,13.00
2018-12-11T11:34:47.415Z,13.60
2018-12-11T11:37:16.404Z,13.30
2018-12-11T11:39:45.395Z,12.00
2018-12-11T11:42:16.046Z,11.10
2018-12-11T11:44:45.111Z,10.30
2018-12-11T11:47:14.405Z,10.00
2018-12-11T11:49:44.399Z,11.10
2018-12-11T11:52:13.433Z,12.10
2018-12-11T11:54:42.446Z,12.80
2018-12-11T11:57:11.454Z,13.60
2018-12-11T11:59:40.471Z,14.20
2018-12-11T12:02:09.503Z,14.70
2018-12-11T12:04:38.536Z,14.80
2018-12-11T12:07:07.578Z,15.30
2018-12-11T12:09:36.580Z,14.60
2018-12-11T12:12:05.654Z,13.90
2018-12-11T12:14:34.771Z,14.00
2018-12-11T12:17:03.799Z,13.50
2018-12-11T12:19:32.842Z,13.90
2018-12-11T12:22:01.927Z,13.90
2018-12-11T12:24:30.998Z,13.80
2018-12-11T12:27:00.060Z,13.50
2018-12-11T12:29:30.071Z,13.40
2018-12-11T12:31:59.139Z,13.40
2018-12-11T12:34:28.114Z,13.10
2018-12-11T12:36:57.158Z,13.10
2018-12-11T12:39:26.167Z,13.20
2018-12-11T12:41:55.206Z,13.10
2018-12-11T12:44:24.254Z,12.30
2018-12-11T12:46:53.302Z,11.50
2018-12-11T12:49:22.339Z,11.50
2018-12-11T12:51:51.419Z,11.00
2018-12-11T12:54:20.460Z,11.40
2018-12-11T12:56:49.483Z,11.70
2018-12-11T12:59:18.479Z,11.80
2018-12-11T13:01:47.511Z,11.80
2018-12-11T13:04:16.531Z,11.00
2018-12-11T13:06:45.814Z,10.40
2018-12-11T13:09:14.859Z,9.60
2018-12-11T13:11:43.863Z,9.30
2018-12-11T13:14:12.871Z,9.00
2018-12-11T13:16:41.923Z,9.10
2018-12-11T13:19:11.051Z,9.40
2018-12-11T13:21:40.115Z,10.00
2018-12-11T13:24:09.195Z,10.70
2018-12-11T13:26:38.277Z,11.10
2018-12-11T13:29:07.359Z,10.70
2018-12-11T13:31:36.351Z,10.50
2018-12-11T13:34:05.386Z,9.90
2018-12-11T13:36:34.423Z,9.50
2018-12-11T13:39:04.549Z,9.70
2018-12-11T13:41:35.555Z,10.10
2018-12-11T13:44:04.850Z,10.40
2018-12-11T13:46:34.542Z,10.20
2018-12-11T13:49:03.634Z,10.00
2018-12-11T13:51:32.647Z,10.00
2018-12-11T13:54:01.658Z,10.00
2018-12-11T13:56:30.649Z,9.80
2018-12-11T13:59:00.527Z,9.70
2018-12-11T14:01:29.510Z,9.80
2018-12-11T14:03:58.499Z,9.60
2018-12-11T14:06:27.508Z,9.50
2018-12-11T14:08:56.551Z,9.20
2018-12-11T14:11:25.564Z,8.80
2018-12-11T14:13:54.585Z,8.50
2018-12-11T14:16:23.587Z,8.30
2018-12-11T14:18:52.590Z,8.10
2018-12-11T14:21:21.782Z,8.00
2018-12-11T14:23:50.795Z,7.90
2018-12-11T14:26:19.809Z,7.70
2018-12-11T14:28:48.831Z,7.60
2018-12-11T14:31:17.941Z,7.30
2018-12-11T14:33:46.978Z,7.10
2018-12-11T14:36:16.000Z,7.00
2018-12-11T14:38:45.094Z,6.90
2018-12-11T14:41:14.109Z,6.80
2018-12-11T14:43:43.149Z,6.70
2018-12-11T14:46:12.330Z,6.50
2018-12-11T14:48:41.338Z,6.50
2018-12-11T14:51:10.404Z,6.30
2018-12-11T14:53:39.442Z,6.20
2018-12-11T14:56:08.457Z,6.10
2018-12-11T14:58:38.534Z,6.00
2018-12-11T15:01:07.562Z,5.90
2018-12-11T15:03:36.603Z,6.00
2018-12-11T15:06:05.639Z,6.10
2018-12-11T15:08:34.678Z,6.20
2018-12-11T15:11:03.707Z,6.20
2018-12-11T15:13:32.735Z,6.20
2018-12-11T15:16:01.895Z,6.20
2018-12-11T15:18:30.940Z,6.20
2018-12-11T15:20:59.933Z,6.20
2018-12-11T15:23:28.997Z,6.10
2018-12-11T15:25:58.013Z,6.10
2018-12-11T15:28:26.999Z,6.00
2018-12-11T15:31:10.806Z,5.90
2018-12-11T15:33:39.839Z,5.80
2018-12-11T15:36:08.889Z,5.70
2018-12-11T15:38:37.968Z,5.70
2018-12-11T15:41:07.037Z,5.60
2018-12-11T15:43:36.058Z,5.60
2018-12-11T15:46:05.076Z,5.60
2018-12-11T15:48:34.085Z,5.50
2018-12-11T15:51:03.086Z,5.60
2018-12-11T15:53:32.116Z,5.60
2018-12-11T15:56:01.660Z,5.60
2018-12-11T15:58:31.655Z,5.60
2018-12-11T16:01:00.744Z,5.60
2018-12-11T16:03:29.772Z,5.60
2018-12-11T16:05:59.068Z,5.60
2018-12-11T16:08:28.077Z,5.50
2018-12-11T16:10:57.076Z,5.50
2018-12-11T16:13:26.122Z,5.40
2018-12-11T16:15:55.109Z,5.40
2018-12-11T16:18:24.102Z,5.20
2018-12-11T16:20:53.147Z,5.20
2018-12-11T16:23:22.128Z,5.10
2018-12-11T16:25:51.187Z,5.10
2018-12-11T16:28:20.172Z,5.20
2018-12-11T16:30:49.167Z,5.20
2018-12-11T16:33:18.180Z,5.10
2018-12-11T16:35:47.222Z,4.90
2018-12-11T16:38:16.225Z,4.90
2018-12-11T16:40:45.211Z,4.70
2018-12-11T16:43:14.229Z,4.60
2018-12-11T16:45:43.238Z,4.50
2018-12-11T16:48:12.233Z,4.50
2018-12-11T16:50:41.246Z,4.50
2018-12-11T16:53:10.243Z,4.50
2018-12-11T16:55:39.283Z,4.50
2018-12-11T16:58:08.287Z,4.40
2018-12-11T17:00:37.575Z,4.60
2018-12-11T17:03:06.686Z,4.60
2018-12-11T17:05:35.746Z,4.60
2018-12-11T17:08:04.879Z,4.60
2018-12-11T17:10:33.880Z,4.70
2018-12-11T17:13:02.891Z,4.60
2018-12-11T17:15:32.237Z,4.50
2018-12-11T17:18:01.230Z,4.40
2018-12-11T17:20:30.563Z,4.40
2018-12-11T17:22:59.608Z,4.40
2018-12-11T17:25:28.617Z,4.30
2018-12-11T17:27:57.647Z,4.20
2018-12-11T17:30:26.644Z,4.20
2018-12-11T17:32:55.762Z,4.10
2018-12-11T17:35:24.769Z,4.00
2018-12-11T17:37:53.788Z,3.90
2018-12-11T17:40:22.827Z,3.90
2018-12-11T17:42:51.864Z,3.80
2018-12-11T17:45:20.899Z,3.70
2018-12-11T17:47:49.931Z,3.70
2018-12-11T17:50:18.979Z,3.70
2018-12-11T17:52:48.101Z,3.70
2018-12-11T17:55:17.122Z,3.60
2018-12-11T17:57:46.130Z,3.70
2018-12-11T18:00:15.418Z,3.70
2018-12-11T18:02:44.586Z,3.80
2018-12-11T18:05:14.874Z,3.70
2018-12-11T18:07:43.898Z,3.70
2018-12-11T18:10:13.063Z,3.60
2018-12-11T18:12:42.120Z,3.60
2018-12-11T18:15:11.213Z,3.60
2018-12-11T18:17:40.291Z,3.70
2018-12-11T18:20:09.329Z,3.70
2018-12-11T18:22:38.394Z,3.80
2018-12-11T18:25:07.548Z,3.70
2018-12-11T18:27:36.607Z,3.70
2018-12-11T18:30:07.127Z,3.70
2018-12-11T18:32:36.303Z,3.80
2018-12-11T18:35:06.606Z,3.80
2018-12-11T18:37:35.667Z,3.80
2018-12-11T18:40:08.168Z,3.70
2018-12-11T18:42:37.558Z,3.70
2018-12-11T18:45:07.510Z,3.60
2018-12-11T18:47:36.563Z,3.70
2018-12-11T18:50:06.930Z,3.70
2018-12-11T18:52:35.993Z,3.70
2018-12-11T18:55:05.741Z,3.70
2018-12-11T18:57:34.811Z,3.70
2018-12-11T19:00:04.550Z,3.70
2018-12-11T19:02:33.608Z,3.80
2018-12-11T19:05:02.929Z,3.80
2018-12-11T19:07:32.934Z,3.80
2018-12-11T19:10:02.036Z,3.90
2018-12-11T19:12:31.071Z,3.90
2018-12-11T19:15:04.771Z,3.80
2018-12-11T19:17:31.150Z,3.90
2018-12-11T19:20:00.307Z,3.80
2018-12-11T19:22:29.323Z,3.80
2018-12-11T19:24:59.073Z,3.90
2018-12-11T19:27:28.120Z,3.90
2018-12-11T19:29:57.238Z,4.00
2018-12-11T19:32:26.510Z,3.90
2018-12-11T19:34:55.611Z,4.00
2018-12-11T19:37:24.759Z,4.00
2018-12-11T19:39:53.779Z,4.10
2018-12-11T19:42:22.787Z,4.10
2018-12-11T19:44:51.809Z,4.10
2018-12-11T19:47:20.849Z,4.10
2018-12-11T19:49:49.943Z,4.20
2018-12-11T19:52:19.002Z,4.30
2018-12-11T19:54:48.052Z,4.30
2018-12-11T19:57:17.115Z,4.30
2018-12-11T19:59:46.248Z,4.30
2018-12-11T20:02:15.582Z,4.30
2018-12-11T20:04:44.579Z,4.40
2018-12-11T20:07:13.647Z,4.40
2018-12-11T20:09:47.831Z,4.30
2018-12-11T20:12:16.994Z,4.30
2018-12-11T20:14:46.047Z,4.30
2018-12-11T20:17:15.082Z,4.30
2018-12-11T20:19:44.096Z,4.30
2018-12-11T20:22:13.123Z,4.30
2018-12-11T20:24:42.281Z,4.20
2018-12-11T20:27:11.360Z,4.30
2018-12-11T20:29:41.616Z,4.20
2018-12-11T20:32:10.705Z,4.20
2018-12-11T20:34:39.723Z,4.30
2018-12-11T20:37:09.347Z,4.30
2018-12-11T20:39:38.456Z,4.30
2018-12-11T20:42:07.691Z,4.30
2018-12-11T20:44:36.741Z,4.30
2018-12-11T20:47:06.411Z,4.40
2018-12-11T20:49:35.487Z,4.40
2018-12-11T20:52:04.623Z,4.30
2018-12-11T20:54:33.875Z,4.30
2018-12-11T20:57:02.901Z,4.20
2018-12-11T20:59:31.947Z,4.10
2018-12-11T21:02:01.004Z,3.90
2018-12-11T21:04:30.023Z,3.70
2018-12-11T21:06:59.109Z,3.50
2018-12-11T21:09:28.153Z,3.40
2018-12-11T21:11:57.198Z,3.40
2018-12-11T21:14:26.231Z,3.20
2018-12-11T21:16:55.231Z,3.10
2018-12-11T21:19:24.401Z,3.00
2018-12-11T21:21:53.444Z,2.90
2018-12-11T21:24:24.565Z,2.70
2018-12-11T21:26:53.862Z,2.70
2018-12-11T21:29:23.120Z,2.60
2018-12-11T21:31:52.130Z,2.50
2018-12-11T21:34:21.214Z,2.50
2018-12-11T21:36:50.314Z,2.50
2018-12-11T21:39:19.347Z,2.40
2018-12-11T21:41:48.410Z,2.30
2018-12-11T21:44:17.466Z,2.20
2018-12-11T21:46:46.527Z,2.20
2018-12-11T21:49:15.789Z,2.20
2018-12-11T21:51:44.803Z,2.10
2018-12-11T21:54:13.878Z,2.00
2018-12-11T21:56:42.906Z,2.00
2018-12-11T21:59:11.922Z,1.90
2018-12-11T22:01:41.510Z,1.90
2018-12-11T22:04:10.534Z,1.80
2018-12-11T22:06:39.575Z,1.70
2018-12-11T22:09:08.705Z,1.60
2018-12-11T22:11:39.076Z,1.50
2018-12-11T22:14:08.231Z,1.50
2018-12-11T22:16:37.263Z,1.60
2018-12-11T22:19:06.292Z,1.70
2018-12-11T22:21:35.362Z,1.70
2018-12-11T22:24:04.394Z,1.70
2018-12-11T22:26:33.598Z,1.70
2018-12-11T22:29:02.742Z,1.70
2018-12-11T22:31:31.768Z,1.70
2018-12-11T22:34:00.795Z,1.60
2018-12-11T22:36:29.804Z,1.50
2018-12-11T22:38:58.939Z,1.60
2018-12-11T22:41:27.947Z,1.50
2018-12-11T22:43:56.986Z,1.40
2018-12-11T22:46:26.047Z,1.40
2018-12-11T22:48:55.307Z,1.30
2018-12-11T22:51:24.839Z,1.30
2018-12-11T22:53:53.847Z,1.30
2018-12-11T22:56:22.888Z,1.30
2018-12-11T22:58:51.886Z,1.20
2018-12-11T23:01:20.930Z,1.10
2018-12-11T23:03:50.087Z,0.90
2018-12-11T23:06:19.095Z,0.80
2018-12-11T23:08:48.106Z,0.80
2018-12-11T23:11:17.279Z,0.80
2018-12-11T23:13:46.287Z,0.90
2018-12-11T23:16:15.489Z,0.80
2018-12-11T23:18:44.491Z,0.80
2018-12-11T23:21:13.506Z,0.70
2018-12-11T23:23:42.667Z,0.60
2018-12-11T23:26:11.686Z,0.50
2018-12-11T23:28:40.840Z,0.50
2018-12-11T23:31:09.887Z,0.50
2018-12-11T23:33:38.927Z,0.40
2018-12-11T23:36:07.936Z,0.50
2018-12-11T23:38:37.068Z,0.40
2018-12-11T23:41:06.127Z,0.60
2018-12-11T23:43:35.196Z,0.60
2018-12-11T23:46:04.219Z,0.60
2018-12-11T23:48:33.205Z,0.70
2018-12-11T23:51:02.223Z,0.70
2018-12-11T23:53:31.358Z,0.60
2018-12-11T23:56:00.353Z,0.60
2018-12-11T23:58:29.374Z,0.50
